Time;durP1;ratioP1;P1;durP2;ratioP2;P2;SDS_P1;SDS_P2;PMS_P1;PMS_P2;Temp;Humidity;BMP_temperature;BMP_pressure;BME280_temperature;BME280_humidity;BME280_pressure;Samples;Min_cycle;Max_cycle;Signal;HPM_P1;HPM_P2
2022/07/23 00:02:10;;;;;;;6.53;2.80;;;;;;;;;;5060802;28;20033;-66
2022/07/23 00:04:36;;;;;;;4.43;2.92;;;;;;;;;;5064079;28;20029;-66
2022/07/23 00:07:02;;;;;;;4.90;2.47;;;;;;;;;;5063864;28;20549;-65
2022/07/23 00:09:31;;;;;;;7.28;2.75;;;;;;;;;;5064442;28;20028;-66
2022/07/23 00:11:57;;;;;;;6.13;2.70;;;;;;;;;;5059001;28;20107;-66
2022/07/23 00:14:23;;;;;;;5.72;2.58;;;;;;;;;;5069266;28;20035;-65
2022/07/23 00:16:49;;;;;;;19.38;2.78;;;;;;;;;;5071418;28;20033;-65
2022/07/23 00:19:15;;;;;;;9.25;2.88;;;;;;;;;;5066673;28;20044;-65
2022/07/23 00:21:41;;;;;;;6.47;2.90;;;;;;;;;;5069429;28;20474;-65
2022/07/23 00:24:08;;;;;;;3.50;2.22;;;;;;;;;;5068885;28;20046;-65
2022/07/23 00:26:34;;;;;;;5.30;2.67;;;;;;;;;;5071010;28;20024;-65
2022/07/23 00:29:00;;;;;;;4.53;2.38;;;;;;;;;;5066567;28;20060;-65
2022/07/23 00:31:27;;;;;;;3.67;2.50;;;;;;;;;;5067671;28;20448;-65
2022/07/23 00:33:57;;;;;;;8.05;2.53;;;;;;;;;;5067506;28;20078;-65
2022/07/23 00:36:23;;;;;;;4.32;2.90;;;;;;;;;;5062782;28;20024;-65
2022/07/23 00:38:50;;;;;;;5.28;2.20;;;;;;;;;;5065647;28;20043;-66
2022/07/23 00:41:16;;;;;;;5.85;2.72;;;;;;;;;;5065777;28;20027;-66
2022/07/23 00:43:42;;;;;;;6.78;2.45;;;;;;;;;;5065205;28;20036;-65
2022/07/23 00:46:08;;;;;;;5.32;2.53;;;;;;;;;;5064138;28;20444;-65
2022/07/23 00:48:34;;;;;;;5.38;2.50;;;;;;;;;;5063541;28;20067;-65
2022/07/23 00:51:01;;;;;;;5.80;2.25;;;;;;;;;;5066901;28;20021;-65
2022/07/23 00:53:27;;;;;;;3.38;2.40;;;;;;;;;;5055185;28;20494;-66
2022/07/23 00:55:54;;;;;;;4.50;2.10;;;;;;;;;;5061718;28;20436;-66
2022/07/23 00:58:20;;;;;;;3.70;2.42;;;;;;;;;;5066654;28;20056;-66
2022/07/23 01:00:46;;;;;;;3.78;2.10;;;;;;;;;;5069448;28;20465;-66
2022/07/23 01:03:12;;;;;;;7.50;2.20;;;;;;;;;;5065693;28;20021;-66
2022/07/23 01:05:39;;;;;;;4.50;2.40;;;;;;;;;;5068105;28;20512;-67
2022/07/23 01:08:06;;;;;;;4.30;2.20;;;;;;;;;;5069586;28;20052;-67
2022/07/23 01:10:32;;;;;;;6.85;2.47;;;;;;;;;;5069408;28;20035;-66
2022/07/23 01:13:05;;;;;;;5.18;2.78;;;;;;;;;;5069145;28;20566;-66
2022/07/23 01:15:32;;;;;;;4.63;2.28;;;;;;;;;;5059616;28;20482;-66
2022/07/23 01:17:59;;;;;;;7.97;2.92;;;;;;;;;;5068474;28;20048;-66
2022/07/23 01:20:26;;;;;;;9.43;2.75;;;;;;;;;;5049594;28;20033;-66
2022/07/23 01:22:53;;;;;;;8.48;2.75;;;;;;;;;;5060553;28;20021;-65
2022/07/23 01:25:20;;;;;;;6.28;3.40;;;;;;;;;;5067549;28;20037;-66
2022/07/23 01:27:54;;;;;;;4.15;2.58;;;;;;;;;;5066830;28;20102;-65
2022/07/23 01:30:22;;;;;;;4.53;2.65;;;;;;;;;;5063599;28;20474;-66
2022/07/23 01:32:48;;;;;;;3.58;2.63;;;;;;;;;;5065532;28;20115;-65
2022/07/23 01:35:15;;;;;;;7.53;2.90;;;;;;;;;;5071181;28;20033;-66
2022/07/23 01:37:42;;;;;;;8.02;3.20;;;;;;;;;;5067308;28;20034;-66
2022/07/23 01:40:09;;;;;;;4.60;2.80;;;;;;;;;;5066483;28;20025;-66
2022/07/23 01:42:36;;;;;;;3.92;2.45;;;;;;;;;;5065668;28;20024;-65
2022/07/23 01:45:04;;;;;;;5.65;3.40;;;;;;;;;;5064649;28;20505;-66
2022/07/23 01:47:30;;;;;;;9.45;2.85;;;;;;;;;;5066111;28;20147;-66
2022/07/23 01:49:58;;;;;;;7.90;2.65;;;;;;;;;;5049386;28;20030;-65
2022/07/23 01:52:34;;;;;;;8.40;2.60;;;;;;;;;;5065170;28;20036;-66
2022/07/23 01:55:00;;;;;;;6.50;3.10;;;;;;;;;;5064066;28;20025;-66
2022/07/23 01:57:27;;;;;;;6.30;3.15;;;;;;;;;;5067931;28;20021;-65
2022/07/23 01:59:55;;;;;;;7.32;3.15;;;;;;;;;;5067770;28;20519;-65
2022/07/23 02:02:22;;;;;;;5.82;2.92;;;;;;;;;;5061696;28;20390;-65
2022/07/23 02:04:48;;;;;;;6.90;2.95;;;;;;;;;;5070736;28;20032;-65
2022/07/23 02:07:16;;;;;;;7.18;3.15;;;;;;;;;;5069375;28;20028;-65
2022/07/23 02:09:42;;;;;;;4.72;2.95;;;;;;;;;;5068045;28;20486;-65
2022/07/23 02:12:08;;;;;;;8.80;3.20;;;;;;;;;;5072428;28;20057;-65
2022/07/23 02:14:34;;;;;;;6.65;3.35;;;;;;;;;;5074964;28;20032;-65
2022/07/23 02:17:02;;;;;;;8.55;3.20;;;;;;;;;;5073658;28;20029;-65
2022/07/23 02:19:29;;;;;;;6.82;3.25;;;;;;;;;;5066906;28;20554;-65
2022/07/23 02:21:55;;;;;;;7.93;2.90;;;;;;;;;;5073431;28;20029;-65
2022/07/23 02:24:21;;;;;;;4.43;3.10;;;;;;;;;;5070547;28;20062;-65
2022/07/23 02:26:47;;;;;;;7.50;3.63;;;;;;;;;;5071381;28;20161;-65
2022/07/23 02:29:14;;;;;;;7.13;3.13;;;;;;;;;;5070032;28;20089;-67
2022/07/23 02:31:40;;;;;;;7.47;2.58;;;;;;;;;;5072043;28;20032;-66
2022/07/23 02:34:07;;;;;;;6.72;3.90;;;;;;;;;;5064228;28;20036;-68
2022/07/23 02:36:33;;;;;;;8.30;3.50;;;;;;;;;;5068217;28;20032;-68
2022/07/23 02:38:59;;;;;;;5.60;3.38;;;;;;;;;;5073545;28;20024;-68
2022/07/23 02:41:28;;;;;;;5.97;3.38;;;;;;;;;;5062538;28;20020;-67
2022/07/23 02:43:55;;;;;;;5.43;3.40;;;;;;;;;;5063215;28;20387;-66
2022/07/23 02:46:22;;;;;;;5.55;3.17;;;;;;;;;;5070337;28;20379;-66
2022/07/23 02:48:48;;;;;;;5.10;3.28;;;;;;;;;;5062212;28;20436;-66
2022/07/23 02:51:15;;;;;;;10.85;2.80;;;;;;;;;;5071537;28;20083;-66
2022/07/23 02:53:45;;;;;;;6.65;3.25;;;;;;;;;;5070154;28;20394;-66
2022/07/23 02:56:11;;;;;;;5.60;3.47;;;;;;;;;;5070628;28;20024;-66
2022/07/23 02:58:37;;;;;;;8.40;3.03;;;;;;;;;;5068118;28;20074;-66
2022/07/23 03:01:04;;;;;;;7.05;3.20;;;;;;;;;;5052821;28;20039;-65
2022/07/23 03:03:30;;;;;;;6.18;3.53;;;;;;;;;;5065240;28;20111;-66
2022/07/23 03:05:57;;;;;;;5.00;2.85;;;;;;;;;;5069115;28;20036;-65
2022/07/23 03:08:24;;;;;;;5.35;3.08;;;;;;;;;;5068141;28;20020;-66
2022/07/23 03:10:51;;;;;;;5.90;3.42;;;;;;;;;;5064899;28;20021;-66
2022/07/23 03:13:17;;;;;;;5.47;2.90;;;;;;;;;;5069837;28;20032;-66
2022/07/23 03:15:44;;;;;;;5.07;2.53;;;;;;;;;;5072195;28;20028;-66
2022/07/23 03:18:10;;;;;;;4.72;2.70;;;;;;;;;;5069464;28;20078;-65
2022/07/23 03:20:36;;;;;;;3.88;2.30;;;;;;;;;;5070038;28;20467;-66
2022/07/23 03:23:02;;;;;;;6.40;2.60;;;;;;;;;;5065260;28;20028;-66
2022/07/23 03:25:30;;;;;;;6.65;2.38;;;;;;;;;;5069791;28;20047;-66
2022/07/23 03:27:56;;;;;;;3.05;2.30;;;;;;;;;;5071323;28;20117;-66
2022/07/23 03:30:22;;;;;;;4.55;2.78;;;;;;;;;;5088842;28;20024;-66
2022/07/23 03:32:48;;;;;;;3.67;2.53;;;;;;;;;;5069208;28;20085;-66
2022/07/23 03:35:15;;;;;;;5.32;2.53;;;;;;;;;;5066377;28;20474;-66
2022/07/23 03:37:50;;;;;;;4.47;2.38;;;;;;;;;;5070923;28;20371;-66
2022/07/23 03:40:16;;;;;;;4.22;2.60;;;;;;;;;;5066796;28;20024;-66
2022/07/23 03:42:43;;;;;;;4.25;2.22;;;;;;;;;;5067046;28;20092;-66
2022/07/23 03:45:10;;;;;;;5.50;3.15;;;;;;;;;;5070105;28;20064;-66
2022/07/23 03:47:36;;;;;;;2.92;2.17;;;;;;;;;;5069706;28;20028;-66
2022/07/23 03:50:02;;;;;;;5.10;2.20;;;;;;;;;;5069430;28;20028;-66
2022/07/23 03:52:28;;;;;;;6.55;2.15;;;;;;;;;;5066575;28;20024;-66
2022/07/23 03:54:54;;;;;;;4.20;2.60;;;;;;;;;;5071755;28;20050;-67
2022/07/23 03:57:23;;;;;;;5.45;2.45;;;;;;;;;;5068613;28;20024;-65
2022/07/23 03:59:49;;;;;;;5.35;2.53;;;;;;;;;;5044765;28;20044;-65
2022/07/23 04:02:15;;;;;;;4.32;2.35;;;;;;;;;;5060202;28;20024;-65
2022/07/23 04:04:41;;;;;;;5.38;2.63;;;;;;;;;;5069085;28;20387;-66
2022/07/23 04:07:07;;;;;;;3.88;2.45;;;;;;;;;;5070509;28;20036;-65
2022/07/23 04:09:34;;;;;;;3.28;2.42;;;;;;;;;;5058219;28;20486;-66
2022/07/23 04:12:01;;;;;;;5.18;2.30;;;;;;;;;;5068517;28;20028;-66
2022/07/23 04:14:27;;;;;;;5.20;2.35;;;;;;;;;;5069897;28;20055;-65
2022/07/23 04:16:53;;;;;;;3.38;2.22;;;;;;;;;;5064569;28;20107;-66
2022/07/23 04:19:20;;;;;;;3.63;2.30;;;;;;;;;;5068351;28;20039;-66
2022/07/23 04:22:00;;;;;;;4.68;2.42;;;;;;;;;;5060926;28;20086;-66
2022/07/23 04:24:26;;;;;;;5.85;2.35;;;;;;;;;;5068314;28;20062;-65
2022/07/23 04:26:53;;;;;;;6.47;3.10;;;;;;;;;;5067781;28;20032;-65
2022/07/23 04:29:19;;;;;;;3.88;2.50;;;;;;;;;;5060195;28;20041;-66
2022/07/23 04:31:46;;;;;;;7.28;3.83;;;;;;;;;;5066129;28;20032;-66
2022/07/23 04:34:12;;;;;;;2.70;2.10;;;;;;;;;;5069464;28;20073;-66
2022/07/23 04:36:39;;;;;;;9.57;2.40;;;;;;;;;;5067277;28;20040;-66
2022/07/23 04:39:06;;;;;;;4.60;2.70;;;;;;;;;;5066855;28;20032;-65
2022/07/23 04:41:34;;;;;;;3.65;2.85;;;;;;;;;;5067174;28;20025;-65
2022/07/23 04:44:00;;;;;;;7.50;2.58;;;;;;;;;;5070777;28;20397;-65
2022/07/23 04:46:27;;;;;;;4.55;2.60;;;;;;;;;;5071024;28;20032;-66
2022/07/23 04:48:55;;;;;;;7.55;3.10;;;;;;;;;;5067221;28;20035;-66
2022/07/23 04:51:21;;;;;;;4.25;2.60;;;;;;;;;;5067370;28;20041;-67
2022/07/23 04:53:48;;;;;;;5.80;2.92;;;;;;;;;;5069675;28;20420;-66
2022/07/23 04:56:14;;;;;;;6.82;2.80;;;;;;;;;;5069789;28;20028;-65
2022/07/23 04:58:40;;;;;;;6.75;3.47;;;;;;;;;;5066270;28;20446;-66
2022/07/23 05:01:06;;;;;;;5.30;2.80;;;;;;;;;;5063604;28;20115;-66
2022/07/23 05:03:34;;;;;;;6.55;3.28;;;;;;;;;;5066413;28;20025;-65
2022/07/23 05:06:00;;;;;;;4.68;2.58;;;;;;;;;;5064391;28;20028;-65
2022/07/23 05:08:27;;;;;;;6.10;3.47;;;;;;;;;;5065503;28;20056;-65
2022/07/23 05:10:56;;;;;;;5.63;3.28;;;;;;;;;;5067267;28;20386;-66
2022/07/23 05:13:22;;;;;;;5.72;3.50;;;;;;;;;;5070062;28;20094;-66
2022/07/23 05:15:51;;;;;;;5.22;3.15;;;;;;;;;;5081406;28;20040;-66
2022/07/23 05:18:17;;;;;;;4.70;2.55;;;;;;;;;;5067147;28;20107;-66
2022/07/23 05:20:44;;;;;;;5.38;2.60;;;;;;;;;;5065537;28;20032;-66
2022/07/23 05:23:13;;;;;;;3.33;2.70;;;;;;;;;;5069093;28;20037;-66
2022/07/23 05:25:40;;;;;;;8.57;2.95;;;;;;;;;;5078899;28;20041;-65
2022/07/23 05:28:07;;;;;;;5.43;2.88;;;;;;;;;;5067093;28;20072;-65
2022/07/23 05:30:34;;;;;;;4.35;3.20;;;;;;;;;;5066257;28;20398;-66
2022/07/23 05:33:03;;;;;;;4.03;2.53;;;;;;;;;;5059317;28;20082;-66
2022/07/23 05:35:29;;;;;;;6.80;3.55;;;;;;;;;;5067436;28;20155;-66
2022/07/23 05:38:19;;;;;;;7.50;3.38;;;;;;;;;;5069259;28;20058;-66
2022/07/23 05:40:45;;;;;;;8.20;3.53;;;;;;;;;;5070651;28;20070;-66
2022/07/23 05:43:12;;;;;;;4.88;3.53;;;;;;;;;;5067830;28;20111;-66
2022/07/23 05:45:38;;;;;;;4.85;3.40;;;;;;;;;;5068283;28;20457;-67
2022/07/23 05:48:05;;;;;;;6.20;3.53;;;;;;;;;;5067779;28;20094;-66
2022/07/23 05:50:37;;;;;;;7.90;4.00;;;;;;;;;;5071327;28;20032;-67
2022/07/23 05:53:14;;;;;;;6.53;4.32;;;;;;;;;;5065738;28;20691;-66
2022/07/23 05:56:01;;;;;;;5.65;3.55;;;;;;;;;;5067587;28;20036;-66
2022/07/23 05:58:28;;;;;;;5.53;3.53;;;;;;;;;;5065466;28;20028;-67
2022/07/23 06:00:54;;;;;;;5.45;3.70;;;;;;;;;;5065151;28;20028;-66
2022/07/23 06:03:20;;;;;;;7.13;3.88;;;;;;;;;;5063999;28;20032;-66
2022/07/23 06:05:46;;;;;;;9.07;4.60;;;;;;;;;;5066576;28;20537;-74
2022/07/23 06:08:12;;;;;;;7.40;4.10;;;;;;;;;;5065170;28;20044;-67
2022/07/23 06:10:39;;;;;;;9.60;4.47;;;;;;;;;;5067653;28;20039;-66
2022/07/23 06:13:05;;;;;;;5.70;3.88;;;;;;;;;;5061562;28;20056;-66
2022/07/23 06:15:31;;;;;;;7.35;3.80;;;;;;;;;;5059124;28;20525;-66
2022/07/23 06:17:57;;;;;;;7.47;3.85;;;;;;;;;;5067763;28;20432;-66
2022/07/23 06:20:24;;;;;;;6.63;3.50;;;;;;;;;;5066789;28;20413;-66
2022/07/23 06:22:50;;;;;;;6.60;3.63;;;;;;;;;;5069433;28;20035;-67
2022/07/23 06:25:17;;;;;;;12.20;3.60;;;;;;;;;;5067447;28;20116;-66
2022/07/23 06:27:44;;;;;;;9.32;4.15;;;;;;;;;;5067454;28;20044;-66
2022/07/23 06:30:12;;;;;;;8.00;3.97;;;;;;;;;;5059504;28;20108;-64
2022/07/23 06:32:38;;;;;;;5.25;3.53;;;;;;;;;;5062705;28;20035;-64
2022/07/23 06:35:04;;;;;;;7.13;3.70;;;;;;;;;;5067931;28;20029;-63
2022/07/23 06:37:31;;;;;;;7.38;3.20;;;;;;;;;;5063611;28;20032;-64
2022/07/23 06:39:57;;;;;;;8.13;3.35;;;;;;;;;;5066869;28;20055;-64
2022/07/23 06:42:23;;;;;;;7.35;3.20;;;;;;;;;;5061017;28;20032;-63
2022/07/23 06:44:56;;;;;;;5.80;3.45;;;;;;;;;;5066538;28;20501;-64
2022/07/23 06:47:22;;;;;;;10.88;4.32;;;;;;;;;;5062899;28;20020;-63
2022/07/23 06:49:49;;;;;;;5.28;2.60;;;;;;;;;;5064859;28;20115;-64
2022/07/23 06:52:15;;;;;;;3.67;2.80;;;;;;;;;;5064740;28;20067;-64
2022/07/23 06:54:41;;;;;;;5.72;2.70;;;;;;;;;;5059919;28;20059;-64
2022/07/23 06:57:07;;;;;;;4.53;2.72;;;;;;;;;;5058800;28;20462;-63
2022/07/23 06:59:36;;;;;;;6.35;2.70;;;;;;;;;;5058184;28;20486;-63
2022/07/23 07:02:02;;;;;;;4.90;2.58;;;;;;;;;;5053638;28;20028;-64
2022/07/23 07:04:28;;;;;;;3.35;2.17;;;;;;;;;;5061711;28;20020;-64
2022/07/23 07:06:54;;;;;;;6.18;2.70;;;;;;;;;;5069604;28;20032;-64
2022/07/23 07:09:20;;;;;;;6.38;2.30;;;;;;;;;;5071220;28;20032;-64
2022/07/23 07:11:46;;;;;;;4.13;2.28;;;;;;;;;;5058725;28;20028;-64
2022/07/23 07:14:13;;;;;;;3.83;2.00;;;;;;;;;;5066213;28;20092;-64
2022/07/23 07:16:39;;;;;;;3.20;2.08;;;;;;;;;;5064456;28;20427;-64
2022/07/23 07:19:05;;;;;;;3.10;1.90;;;;;;;;;;5066375;28;20431;-64
2022/07/23 07:21:31;;;;;;;8.60;2.15;;;;;;;;;;5065158;28;20052;-64
2022/07/23 07:23:57;;;;;;;2.42;1.70;;;;;;;;;;5067962;28;20028;-64
2022/07/23 07:26:23;;;;;;;4.15;1.75;;;;;;;;;;5067837;28;20039;-63
2022/07/23 07:28:49;;;;;;;3.17;1.90;;;;;;;;;;5070013;28;20124;-64
2022/07/23 07:31:15;;;;;;;2.50;1.83;;;;;;;;;;5068169;28;20052;-64
2022/07/23 07:33:42;;;;;;;2.03;1.67;;;;;;;;;;5072952;28;20055;-64
2022/07/23 07:36:08;;;;;;;2.50;1.63;;;;;;;;;;5065332;28;20437;-64
2022/07/23 07:38:34;;;;;;;3.22;2.10;;;;;;;;;;5066223;28;20104;-64
2022/07/23 07:41:00;;;;;;;2.40;1.65;;;;;;;;;;5072449;28;20120;-64
2022/07/23 07:43:26;;;;;;;3.75;2.30;;;;;;;;;;5066837;28;20056;-64
2022/07/23 07:45:52;;;;;;;3.75;2.25;;;;;;;;;;5064847;28;20344;-64
2022/07/23 07:48:18;;;;;;;4.18;1.70;;;;;;;;;;5064173;28;20029;-64
2022/07/23 07:50:45;;;;;;;2.53;1.55;;;;;;;;;;5069415;28;20026;-64
2022/07/23 07:53:11;;;;;;;3.70;2.00;;;;;;;;;;5065289;28;20439;-64
2022/07/23 07:55:37;;;;;;;3.80;1.60;;;;;;;;;;5065912;28;20029;-64
2022/07/23 07:58:03;;;;;;;3.47;1.98;;;;;;;;;;5065456;28;20115;-64
2022/07/23 08:00:29;;;;;;;5.22;2.22;;;;;;;;;;5067502;28;20096;-64
2022/07/23 08:02:55;;;;;;;4.55;2.20;;;;;;;;;;5066785;28;20024;-64
2022/07/23 08:05:23;;;;;;;3.92;1.88;;;;;;;;;;5069561;28;20028;-64
2022/07/23 08:07:49;;;;;;;3.90;2.05;;;;;;;;;;5062113;28;20073;-64
2022/07/23 08:10:15;;;;;;;4.07;1.90;;;;;;;;;;5062289;28;20047;-64
2022/07/23 08:12:48;;;;;;;4.97;2.05;;;;;;;;;;5062087;28;20064;-64
2022/07/23 08:15:16;;;;;;;4.38;2.90;;;;;;;;;;5064586;28;20498;-64
2022/07/23 08:17:43;;;;;;;2.97;1.85;;;;;;;;;;5068220;28;20108;-64
2022/07/23 08:20:11;;;;;;;4.05;1.73;;;;;;;;;;5068933;28;20028;-64
2022/07/23 08:22:56;;;;;;;4.30;1.90;;;;;;;;;;5065039;28;20060;-64
2022/07/23 08:25:26;;;;;;;6.15;2.38;;;;;;;;;;5066821;28;20111;-64
2022/07/23 08:27:52;;;;;;;2.80;1.98;;;;;;;;;;5065312;28;20129;-64
2022/07/23 08:30:19;;;;;;;4.45;2.58;;;;;;;;;;5064953;28;20082;-64
2022/07/23 08:32:52;;;;;;;2.45;1.92;;;;;;;;;;5065069;28;20025;-64
2022/07/23 08:35:22;;;;;;;3.80;1.80;;;;;;;;;;5067940;28;20029;-64
2022/07/23 08:37:48;;;;;;;3.35;2.22;;;;;;;;;;5066708;28;20037;-64
2022/07/23 08:40:14;;;;;;;5.10;1.90;;;;;;;;;;5063222;28;20112;-64
2022/07/23 08:42:40;;;;;;;2.95;2.30;;;;;;;;;;5064891;28;20029;-64
2022/07/23 08:45:07;;;;;;;2.28;1.85;;;;;;;;;;5070786;28;20020;-64
2022/07/23 08:47:34;;;;;;;2.25;1.60;;;;;;;;;;5069180;28;21517;-64
2022/07/23 08:50:00;;;;;;;2.08;1.90;;;;;;;;;;5069469;28;20036;-64
2022/07/23 08:52:26;;;;;;;2.83;1.98;;;;;;;;;;5069125;28;20035;-64
2022/07/23 08:54:53;;;;;;;3.28;1.83;;;;;;;;;;5070385;28;20046;-64
2022/07/23 08:57:19;;;;;;;2.40;1.90;;;;;;;;;;5069475;28;20382;-64
2022/07/23 08:59:45;;;;;;;3.50;2.08;;;;;;;;;;5065046;28;20071;-64
2022/07/23 09:02:12;;;;;;;3.17;2.08;;;;;;;;;;5067264;28;20021;-64
2022/07/23 09:04:38;;;;;;;4.32;1.98;;;;;;;;;;5056274;28;20032;-64
2022/07/23 09:07:04;;;;;;;1.70;1.50;;;;;;;;;;5066083;28;20032;-64
2022/07/23 09:09:31;;;;;;;2.78;1.52;;;;;;;;;;5065826;28;20040;-66
2022/07/23 09:12:04;;;;;;;1.48;1.35;;;;;;;;;;5061830;28;20486;-66
2022/07/23 09:14:37;;;;;;;1.77;1.63;;;;;;;;;;5066883;28;20036;-68
2022/07/23 09:17:11;;;;;;;3.90;1.73;;;;;;;;;;5066350;28;20485;-68
2022/07/23 09:19:37;;;;;;;2.55;1.70;;;;;;;;;;5059066;28;20024;-69
2022/07/23 09:22:22;;;;;;;2.35;1.88;;;;;;;;;;5068412;28;20024;-70
2022/07/23 09:25:08;;;;;;;1.52;1.38;;;;;;;;;;5063771;28;20028;-70
2022/07/23 09:27:46;;;;;;;1.60;1.48;;;;;;;;;;5061471;28;20040;-70
2022/07/23 09:30:12;;;;;;;3.25;1.80;;;;;;;;;;5064617;28;20417;-70
2022/07/23 09:32:39;;;;;;;2.63;1.67;;;;;;;;;;5067843;28;20098;-70
2022/07/23 09:35:05;;;;;;;2.45;1.75;;;;;;;;;;5065003;28;20055;-71
2022/07/23 09:37:32;;;;;;;2.28;1.50;;;;;;;;;;5066858;28;20032;-68
2022/07/23 09:40:06;;;;;;;3.03;1.55;;;;;;;;;;5060619;28;20051;-69
2022/07/23 09:42:32;;;;;;;1.58;1.38;;;;;;;;;;5061805;28;20103;-68
2022/07/23 09:44:59;;;;;;;1.83;1.25;;;;;;;;;;5063963;28;20039;-69
2022/07/23 09:47:26;;;;;;;3.05;1.77;;;;;;;;;;5065700;28;20524;-69
2022/07/23 09:49:58;;;;;;;1.73;1.48;;;;;;;;;;5068065;28;20150;-69
2022/07/23 09:52:28;;;;;;;6.70;2.80;;;;;;;;;;5062754;28;20021;-69
2022/07/23 09:54:59;;;;;;;2.65;1.15;;;;;;;;;;5064349;28;20032;-70
2022/07/23 09:57:26;;;;;;;3.22;1.63;;;;;;;;;;5061299;28;20028;-70
2022/07/23 09:59:52;;;;;;;9.35;3.97;;;;;;;;;;5065917;28;20367;-70
2022/07/23 10:02:20;;;;;;;7.45;2.53;;;;;;;;;;5055412;28;20064;-70
2022/07/23 10:05:09;;;;;;;2.03;1.63;;;;;;;;;;5060673;28;20507;-70
2022/07/23 10:08:05;;;;;;;2.17;1.48;;;;;;;;;;5019479;28;20073;-71
2022/07/23 10:10:51;;;;;;;3.88;2.05;;;;;;;;;;5020550;28;20052;-71
2022/07/23 10:13:50;;;;;;;5.90;2.25;;;;;;;;;;5009251;28;20533;-70
2022/07/23 10:16:16;;;;;;;3.28;1.55;;;;;;;;;;5022292;28;20044;-70
2022/07/23 10:18:42;;;;;;;3.50;1.50;;;;;;;;;;5025995;28;20042;-66
2022/07/23 10:21:09;;;;;;;4.95;4.07;;;;;;;;;;5028315;28;20036;-66
2022/07/23 10:23:45;;;;;;;4.03;2.38;;;;;;;;;;5012293;28;20075;-66
2022/07/23 10:26:19;;;;;;;2.38;1.45;;;;;;;;;;5025817;28;20038;-66
2022/07/23 10:28:48;;;;;;;2.47;1.65;;;;;;;;;;5026791;28;20053;-66
2022/07/23 10:31:23;;;;;;;2.80;1.52;;;;;;;;;;5023726;28;20107;-66
2022/07/23 10:33:52;;;;;;;2.70;1.40;;;;;;;;;;5029532;28;20112;-66
2022/07/23 10:36:23;;;;;;;3.03;1.90;;;;;;;;;;5027279;28;20072;-66
2022/07/23 10:38:50;;;;;;;1.95;1.35;;;;;;;;;;5027468;28;20052;-66
2022/07/23 10:41:16;;;;;;;5.57;1.67;;;;;;;;;;5027149;28;20420;-66
2022/07/23 10:43:42;;;;;;;2.65;1.80;;;;;;;;;;5033950;28;20063;-66
2022/07/23 10:49:34;;;;;;;5.32;2.30;;;;;;;;;;5066682;28;20467;-66
2022/07/23 10:52:15;;;;;;;8.85;2.55;;;;;;;;;;5067769;28;20421;-66
2022/07/23 10:54:44;;;;;;;6.82;3.42;;;;;;;;;;5066228;28;20194;-69
2022/07/23 10:57:11;;;;;;;6.40;3.17;;;;;;;;;;5070764;28;20028;-69
2022/07/23 10:59:56;;;;;;;1.73;1.60;;;;;;;;;;5068814;28;20535;-69
2022/07/23 11:02:23;;;;;;;3.65;2.10;;;;;;;;;;5058397;28;20025;-70
2022/07/23 11:04:53;;;;;;;3.13;2.50;;;;;;;;;;5066241;28;20492;-69
2022/07/23 11:07:20;;;;;;;3.30;2.38;;;;;;;;;;5068784;28;20036;-69
2022/07/23 11:09:47;;;;;;;4.45;2.78;;;;;;;;;;5067523;28;20036;-69
2022/07/23 11:12:13;;;;;;;5.00;2.70;;;;;;;;;;5069778;28;20480;-69
2022/07/23 11:14:58;;;;;;;3.15;2.53;;;;;;;;;;5069925;28;20025;-65
2022/07/23 11:17:27;;;;;;;2.92;2.08;;;;;;;;;;5065178;28;20017;-65
2022/07/23 11:20:08;;;;;;;12.48;6.78;;;;;;;;;;5067652;28;20060;-68
2022/07/23 11:22:38;;;;;;;16.83;7.97;;;;;;;;;;5065264;28;20103;-65
2022/07/23 11:25:04;;;;;;;5.18;2.83;;;;;;;;;;5064036;28;20029;-65
2022/07/23 11:27:46;;;;;;;4.22;2.97;;;;;;;;;;5068185;28;20070;-65
2022/07/23 11:30:28;;;;;;;5.13;3.03;;;;;;;;;;5065681;28;20498;-65
2022/07/23 11:33:14;;;;;;;6.20;3.65;;;;;;;;;;5066477;28;20033;-65
2022/07/23 11:35:44;;;;;;;4.55;3.03;;;;;;;;;;5057676;28;20394;-65
2022/07/23 11:38:15;;;;;;;4.75;3.38;;;;;;;;;;5067655;28;20031;-65
2022/07/23 11:40:41;;;;;;;5.47;3.10;;;;;;;;;;5067193;28;20024;-66
2022/07/23 11:43:09;;;;;;;6.47;3.33;;;;;;;;;;5065959;28;20031;-65
2022/07/23 11:45:39;;;;;;;5.00;2.63;;;;;;;;;;5064278;28;20032;-65
2022/07/23 11:48:06;;;;;;;4.28;2.70;;;;;;;;;;5065158;28;20048;-65
2022/07/23 11:50:33;;;;;;;5.90;2.45;;;;;;;;;;5061602;28;20041;-65
2022/07/23 11:52:59;;;;;;;16.88;11.07;;;;;;;;;;5060903;28;20078;-65
2022/07/23 11:55:25;;;;;;;6.65;5.25;;;;;;;;;;5065164;28;20493;-65
2022/07/23 11:57:53;;;;;;;7.30;3.67;;;;;;;;;;5067924;28;20120;-66
2022/07/23 12:00:21;;;;;;;6.43;3.33;;;;;;;;;;5065224;28;20044;-65
2022/07/23 12:02:49;;;;;;;3.65;2.70;;;;;;;;;;5061610;28;20372;-65
2022/07/23 12:05:25;;;;;;;3.08;1.95;;;;;;;;;;5068278;28;20510;-65
2022/07/23 12:07:52;;;;;;;3.47;2.72;;;;;;;;;;5067992;28;20111;-65
2022/07/23 12:10:18;;;;;;;3.22;2.50;;;;;;;;;;5065670;28;20033;-65
2022/07/23 12:12:46;;;;;;;4.00;2.13;;;;;;;;;;5064899;28;20044;-65
2022/07/23 12:15:14;;;;;;;3.50;2.00;;;;;;;;;;5064387;28;20038;-65
2022/07/23 12:17:41;;;;;;;1.98;1.73;;;;;;;;;;5065829;28;20028;-65
2022/07/23 12:20:09;;;;;;;3.40;1.75;;;;;;;;;;5064405;28;20017;-65
2022/07/23 12:22:39;;;;;;;1.58;1.48;;;;;;;;;;5070184;28;20021;-65
2022/07/23 12:25:31;;;;;;;2.45;1.98;;;;;;;;;;5063976;28;20086;-65
2022/07/23 12:28:12;;;;;;;3.00;2.30;;;;;;;;;;5061118;28;20068;-65
2022/07/23 12:30:39;;;;;;;3.75;2.17;;;;;;;;;;5066443;28;20031;-65
2022/07/23 12:33:06;;;;;;;3.72;2.03;;;;;;;;;;5064783;28;20035;-65
2022/07/23 12:35:37;;;;;;;2.97;2.00;;;;;;;;;;5063735;28;20101;-65
2022/07/23 12:38:05;;;;;;;2.28;2.00;;;;;;;;;;5062664;28;20436;-65
2022/07/23 12:40:41;;;;;;;3.70;1.83;;;;;;;;;;5065753;28;20438;-65
2022/07/23 12:43:10;;;;;;;3.80;1.67;;;;;;;;;;5062930;28;20017;-65
2022/07/23 12:45:43;;;;;;;2.83;1.73;;;;;;;;;;5067588;28;20082;-65
2022/07/23 12:48:15;;;;;;;1.75;1.38;;;;;;;;;;5066354;28;20107;-65
2022/07/23 12:50:43;;;;;;;1.73;1.40;;;;;;;;;;5067609;28;20021;-66
2022/07/23 12:53:11;;;;;;;4.70;1.90;;;;;;;;;;5067145;28;20485;-65
2022/07/23 12:55:38;;;;;;;3.95;1.67;;;;;;;;;;5064436;28;20439;-65
2022/07/23 12:58:16;;;;;;;2.42;1.75;;;;;;;;;;5064696;28;20052;-65
2022/07/23 13:00:51;;;;;;;1.85;1.70;;;;;;;;;;5065970;28;20035;-65
2022/07/23 13:03:30;;;;;;;2.08;1.55;;;;;;;;;;5065648;28;20029;-65
2022/07/23 13:05:57;;;;;;;2.72;1.45;;;;;;;;;;5065982;28;20509;-65
2022/07/23 13:08:24;;;;;;;3.92;1.98;;;;;;;;;;5070228;28;20509;-65
2022/07/23 13:10:51;;;;;;;3.40;1.63;;;;;;;;;;5067274;28;20059;-66
2022/07/23 13:13:21;;;;;;;4.07;1.73;;;;;;;;;;5067034;28;20047;-65
2022/07/23 13:15:48;;;;;;;2.85;1.90;;;;;;;;;;5064026;28;20024;-65
2022/07/23 13:18:14;;;;;;;1.63;1.38;;;;;;;;;;5064495;28;20028;-66
2022/07/23 13:20:40;;;;;;;2.63;1.55;;;;;;;;;;5065794;28;20093;-66
2022/07/23 13:23:07;;;;;;;3.88;1.55;;;;;;;;;;5053385;28;20078;-66
2022/07/23 13:25:33;;;;;;;2.33;1.70;;;;;;;;;;5067493;28;20115;-66
2022/07/23 13:28:00;;;;;;;4.47;1.92;;;;;;;;;;5058802;28;20052;-66
2022/07/23 13:30:26;;;;;;;2.90;1.80;;;;;;;;;;5066789;28;20536;-66
2022/07/23 13:32:52;;;;;;;3.47;1.95;;;;;;;;;;5067010;28;21435;-66
2022/07/23 13:35:18;;;;;;;5.78;2.72;;;;;;;;;;5058435;28;20032;-65
2022/07/23 13:37:45;;;;;;;4.20;2.00;;;;;;;;;;5059348;28;20036;-66
2022/07/23 13:40:11;;;;;;;3.05;1.80;;;;;;;;;;5058685;28;20024;-65
2022/07/23 13:42:37;;;;;;;3.35;2.20;;;;;;;;;;5059227;28;20113;-65
2022/07/23 13:45:04;;;;;;;3.15;1.67;;;;;;;;;;5062603;28;20068;-64
2022/07/23 13:47:31;;;;;;;2.80;1.88;;;;;;;;;;5059305;28;20063;-64
2022/07/23 13:49:57;;;;;;;2.55;1.80;;;;;;;;;;5062365;28;20101;-64
2022/07/23 13:52:23;;;;;;;2.42;1.63;;;;;;;;;;5063421;28;20045;-64
2022/07/23 13:54:50;;;;;;;1.95;1.70;;;;;;;;;;5059501;28;20033;-64
2022/07/23 13:57:16;;;;;;;3.35;1.80;;;;;;;;;;5062060;28;20048;-64
2022/07/23 13:59:43;;;;;;;4.90;1.95;;;;;;;;;;5066570;28;20025;-64
2022/07/23 14:02:09;;;;;;;5.65;2.17;;;;;;;;;;5059847;28;20021;-65
2022/07/23 14:04:35;;;;;;;3.08;2.17;;;;;;;;;;5058365;28;20055;-64
2022/07/23 14:07:01;;;;;;;3.78;2.25;;;;;;;;;;5067230;28;20119;-64
2022/07/23 14:09:29;;;;;;;5.28;2.15;;;;;;;;;;5068754;28;20042;-64
2022/07/23 14:11:55;;;;;;;6.22;2.47;;;;;;;;;;5068247;28;20023;-64
2022/07/23 14:14:21;;;;;;;4.85;2.10;;;;;;;;;;5069793;28;20028;-64
2022/07/23 14:16:47;;;;;;;5.00;2.40;;;;;;;;;;5068184;28;20037;-64
2022/07/23 14:19:13;;;;;;;4.93;2.72;;;;;;;;;;5068947;28;20021;-64
2022/07/23 14:21:40;;;;;;;5.50;2.50;;;;;;;;;;5069160;28;20035;-64
2022/07/23 14:24:06;;;;;;;5.22;2.38;;;;;;;;;;5068940;28;20027;-64
2022/07/23 14:26:32;;;;;;;4.32;2.35;;;;;;;;;;5068751;28;20052;-64
2022/07/23 14:28:58;;;;;;;3.60;2.30;;;;;;;;;;5062351;28;20047;-64
2022/07/23 14:31:24;;;;;;;2.80;1.85;;;;;;;;;;5065907;28;20074;-64
2022/07/23 14:33:50;;;;;;;4.28;2.05;;;;;;;;;;5068274;28;20024;-64
2022/07/23 14:36:17;;;;;;;2.55;1.98;;;;;;;;;;5070450;28;20398;-64
2022/07/23 14:38:43;;;;;;;6.25;2.42;;;;;;;;;;5067396;28;20440;-64
2022/07/23 14:41:10;;;;;;;4.60;2.53;;;;;;;;;;5066534;28;20156;-64
2022/07/23 14:43:37;;;;;;;5.53;2.63;;;;;;;;;;5068088;28;20016;-64
2022/07/23 14:46:03;;;;;;;7.75;2.50;;;;;;;;;;5065527;28;20043;-64
2022/07/23 14:48:29;;;;;;;4.38;2.45;;;;;;;;;;5065005;28;20052;-64
2022/07/23 14:50:55;;;;;;;4.50;2.88;;;;;;;;;;5067019;28;20037;-64
2022/07/23 14:53:21;;;;;;;5.78;2.45;;;;;;;;;;5069127;28;20040;-64